St Thomas, Virgin Islands
Current Conditions -  °F | °C
As of 8:00 PM on Friday 24 Oct 2014 (Local Time) from TUPJ Reporting Station
Scattered Clouds Scattered Clouds  
Wind Chill: 28°   Ceiling: Unl
Heat Index: 32°   Visibility: 6mi
Dew Point: 24°   Wind: 9mph
Humidity: 79%   Direction: 120°ESE
Pressure: 29.91"   Gusts: NA
Location:  18.3436°N, 64.9322°W
Report Text: TUPJ 250000Z 12008KT 9999 FEW021 SCT230 28/24 Q1013 RMK A2991
Loading
Personal Weather Stations






























Interactive Weather Map
Tropical Storm Tracking
New forecast layout! Learn more

10-Day Weather Forecast

Advertisements
Track Severe Weather on mobile